Time;durP1;ratioP1;P1;durP2;ratioP2;P2;SDS_P1;SDS_P2;PMS_P1;PMS_P2;Temp;Humidity;BMP_temperature;BMP_pressure;BME280_temperature;BME280_humidity;BME280_pressure;Samples;Min_cycle;Max_cycle;Signal;HPM_P1;HPM_P2
2021/01/22 00:00:43;;;;;;;0.43;0.43;;;6.60;99.90;;;;;;5035063;28;20164;-78
2021/01/22 00:03:09;;;;;;;0.20;0.20;;;6.60;99.90;;;;;;5035065;28;20167;-78
2021/01/22 00:05:34;;;;;;;0.20;0.20;;;6.60;99.90;;;;;;5034918;28;20196;-78
2021/01/22 00:08:00;;;;;;;0.10;0.10;;;6.50;99.90;;;;;;5034883;28;20195;-78
2021/01/22 00:10:25;;;;;;;0.20;0.20;;;6.50;99.90;;;;;;5034343;28;20608;-75
2021/01/22 00:12:51;;;;;;;0.32;0.32;;;6.40;99.90;;;;;;5034893;28;20522;-79
2021/01/22 00:15:16;;;;;;;0.20;0.20;;;6.40;99.90;;;;;;5034860;28;20674;-77
2021/01/22 00:17:43;;;;;;;1.15;1.05;;;6.40;99.90;;;;;;5034824;28;20202;-76
2021/01/22 00:20:10;;;;;;;0.10;0.10;;;6.30;99.90;;;;;;5033592;28;20250;-76
2021/01/22 00:22:35;;;;;;;0.10;0.10;;;6.40;99.90;;;;;;5016761;28;20207;-76
2021/01/22 00:25:01;;;;;;;0.20;0.20;;;6.40;99.90;;;;;;5034637;28;20180;-78
2021/01/22 00:27:27;;;;;;;0.47;0.47;;;6.30;99.90;;;;;;5034612;28;20725;-77
2021/01/22 00:29:52;;;;;;;0.20;0.20;;;6.40;99.90;;;;;;5034786;28;20186;-77
2021/01/22 00:32:18;;;;;;;0.20;0.20;;;6.20;99.90;;;;;;5034493;28;20172;-77
2021/01/22 00:34:44;;;;;;;0.10;0.10;;;6.30;99.90;;;;;;5034405;28;20640;-75
2021/01/22 00:37:09;;;;;;;0.25;0.25;;;6.30;99.90;;;;;;5034484;28;20164;-76
2021/01/22 00:39:35;;;;;;;0.20;0.20;;;6.30;99.90;;;;;;5034432;28;20171;-77
2021/01/22 00:42:00;;;;;;;10.77;0.73;;;6.30;99.90;;;;;;5034234;28;20204;-76
2021/01/22 00:44:26;;;;;;;0.13;0.13;;;6.30;99.90;;;;;;5034233;28;20269;-78
2021/01/22 00:46:52;;;;;;;0.30;0.30;;;6.30;99.90;;;;;;5034322;28;20521;-78
2021/01/22 00:49:17;;;;;;;0.20;0.20;;;6.40;99.90;;;;;;5034288;28;20197;-77
2021/01/22 00:51:43;;;;;;;0.10;0.10;;;6.40;99.90;;;;;;5034280;28;20203;-79
2021/01/22 00:54:08;;;;;;;0.95;0.95;;;6.30;99.90;;;;;;5034070;28;20156;-78
2021/01/22 00:56:34;;;;;;;0.20;0.20;;;6.40;99.90;;;;;;5034037;28;20188;-78
2021/01/22 00:58:59;;;;;;;0.38;0.38;;;6.50;99.90;;;;;;5033972;28;20556;-78
2021/01/22 01:01:25;;;;;;;0.43;0.43;;;6.60;99.90;;;;;;5016265;28;20565;-78
2021/01/22 01:03:51;;;;;;;0.22;0.22;;;6.70;99.90;;;;;;5033947;28;20522;-78
2021/01/22 01:06:16;;;;;;;0.20;0.20;;;6.80;99.90;;;;;;5033863;28;20267;-77
2021/01/22 01:08:42;;;;;;;0.20;0.20;;;6.90;99.90;;;;;;5033914;28;20177;-78
2021/01/22 01:11:08;;;;;;;0.28;0.28;;;6.70;99.90;;;;;;5033878;28;20172;-78
2021/01/22 01:13:34;;;;;;;0.32;0.32;;;6.80;99.90;;;;;;5033635;28;20243;-78
2021/01/22 01:15:59;;;;;;;0.20;0.20;;;6.90;99.90;;;;;;5033602;28;20267;-78
2021/01/22 01:18:26;;;;;;;0.20;0.20;;;7.00;99.90;;;;;;5033672;28;20168;-78
2021/01/22 01:20:52;;;;;;;0.20;0.20;;;6.90;99.90;;;;;;5033600;28;20152;-78
2021/01/22 01:23:19;;;;;;;0.30;0.30;;;6.80;99.90;;;;;;5033692;28;20226;-76
2021/01/22 01:25:45;;;;;;;2.13;0.85;;;6.90;99.90;;;;;;5033466;28;20233;-77
2021/01/22 01:28:10;;;;;;;0.20;0.20;;;6.90;99.90;;;;;;5033519;28;20175;-78
2021/01/22 01:30:36;;;;;;;0.20;0.20;;;6.90;99.90;;;;;;5033566;28;20235;-78
2021/01/22 01:33:03;;;;;;;0.85;0.85;;;6.80;99.90;;;;;;5033487;28;20163;-78
2021/01/22 01:35:28;;;;;;;0.10;0.10;;;6.90;99.90;;;;;;5033378;28;20188;-77
2021/01/22 01:37:54;;;;;;;0.10;0.10;;;7.10;99.90;;;;;;5033387;28;20221;-78
2021/01/22 01:40:20;;;;;;;0.40;0.40;;;7.10;99.90;;;;;;5033654;28;20171;-77
2021/01/22 01:42:45;;;;;;;0.20;0.20;;;7.20;99.90;;;;;;5033173;28;20206;-78
2021/01/22 01:45:12;;;;;;;0.52;0.52;;;7.40;99.90;;;;;;5033107;28;20741;-78
2021/01/22 01:47:38;;;;;;;0.43;0.43;;;7.30;99.90;;;;;;5033226;28;20581;-78
2021/01/22 01:50:04;;;;;;;0.15;0.15;;;7.10;99.90;;;;;;5033282;28;20148;-78
2021/01/22 01:52:30;;;;;;;1.38;1.27;;;6.90;99.90;;;;;;5033172;28;20503;-77
2021/01/22 01:54:56;;;;;;;0.30;0.30;;;6.80;99.90;;;;;;5033124;28;20194;-76
2021/01/22 01:57:22;;;;;;;2.55;0.50;;;7.00;99.90;;;;;;5033124;28;20155;-78
2021/01/22 01:59:47;;;;;;;0.10;0.10;;;7.00;99.90;;;;;;5033253;28;20180;-78
2021/01/22 02:02:15;;;;;;;0.10;0.10;;;6.90;99.90;;;;;;5033012;28;20231;-77
2021/01/22 02:04:40;;;;;;;0.20;0.20;;;6.90;99.90;;;;;;5033018;28;20167;-78
2021/01/22 02:07:06;;;;;;;0.10;0.10;;;6.80;99.90;;;;;;5033081;28;20532;-77
2021/01/22 02:09:31;;;;;;;0.20;0.20;;;6.80;99.90;;;;;;5033038;28;20244;-77
2021/01/22 02:11:58;;;;;;;0.20;0.20;;;6.70;99.90;;;;;;5033021;28;20175;-77
2021/01/22 02:14:25;;;;;;;0.10;0.10;;;6.60;99.90;;;;;;5032982;28;20175;-78
2021/01/22 02:16:51;;;;;;;0.10;0.10;;;6.80;99.90;;;;;;5032853;28;20237;-75
2021/01/22 02:19:21;;;;;;;0.10;0.10;;;6.80;99.90;;;;;;5032964;28;20247;-76
2021/01/22 02:21:47;;;;;;;0.20;0.20;;;6.70;99.90;;;;;;5015177;28;20248;-76
2021/01/22 02:24:17;;;;;;;0.20;0.20;;;6.60;99.90;;;;;;5015177;28;20164;-77
2021/01/22 02:27:04;;;;;;;0.28;0.28;;;6.70;99.90;;;;;;5032770;28;20184;-77
2021/01/22 02:29:31;;;;;;;0.10;0.10;;;6.50;99.90;;;;;;5014952;28;20644;-78
2021/01/22 02:32:02;;;;;;;0.20;0.20;;;6.40;99.90;;;;;;5033650;28;20167;-77
2021/01/22 02:34:30;;;;;;;0.10;0.10;;;6.50;99.90;;;;;;5036678;28;20525;-78
2021/01/22 02:36:59;;;;;;;0.28;0.28;;;6.60;99.90;;;;;;5036803;28;20164;-78
2021/01/22 02:39:50;;;;;;;0.30;0.30;;;6.60;99.90;;;;;;5036658;28;20168;-78
2021/01/22 02:42:17;;;;;;;0.30;0.30;;;6.60;99.90;;;;;;5012925;28;20218;-78
2021/01/22 02:44:44;;;;;;;0.17;0.17;;;6.50;99.90;;;;;;5036290;28;20695;-78
2021/01/22 02:47:11;;;;;;;0.13;0.13;;;6.40;99.90;;;;;;5036780;28;20164;-78
2021/01/22 02:49:37;;;;;;;0.20;0.20;;;6.40;99.90;;;;;;5036501;28;20507;-78
2021/01/22 02:52:04;;;;;;;0.10;0.10;;;6.20;99.90;;;;;;5036432;28;20175;-78
2021/01/22 02:54:30;;;;;;;0.10;0.10;;;6.20;99.90;;;;;;5035074;28;20535;-78
2021/01/22 02:56:55;;;;;;;0.20;0.20;;;6.30;99.90;;;;;;5036388;28;20160;-77
2021/01/22 02:59:23;;;;;;;0.20;0.20;;;6.10;99.90;;;;;;5036267;28;20654;-78
2021/01/22 03:02:42;;;;;;;0.10;0.10;;;6.00;99.90;;;;;;5036231;28;20212;-76
2021/01/22 03:05:10;;;;;;;0.20;0.20;;;6.30;99.90;;;;;;4975131;28;20245;-77
2021/01/22 03:07:57;;;;;;;0.10;0.10;;;6.30;99.90;;;;;;4975311;28;20158;-77
2021/01/22 03:10:25;;;;;;;1.95;1.38;;;6.30;99.90;;;;;;5019567;28;20183;-76
2021/01/22 03:12:52;;;;;;;0.25;0.25;;;6.30;99.90;;;;;;5018241;28;20172;-77
2021/01/22 03:15:20;;;;;;;0.20;0.20;;;6.30;99.90;;;;;;5035898;28;20195;-76
2021/01/22 03:17:45;;;;;;;0.10;0.10;;;6.30;99.90;;;;;;5034610;28;20168;-77
2021/01/22 03:20:13;;;;;;;1.80;0.63;;;6.20;99.90;;;;;;5035907;28;20511;-77
2021/01/22 03:22:38;;;;;;;0.25;0.25;;;6.20;99.90;;;;;;5035702;28;20214;-79
2021/01/22 03:25:05;;;;;;;0.10;0.10;;;6.30;99.90;;;;;;5035837;28;20184;-78
2021/01/22 03:27:30;;;;;;;0.10;0.10;;;6.20;99.90;;;;;;5035755;28;20188;-77
2021/01/22 03:29:56;;;;;;;0.20;0.20;;;6.20;99.90;;;;;;5034519;28;20168;-77
2021/01/22 03:32:21;;;;;;;3.72;1.33;;;6.20;99.90;;;;;;5035717;28;20196;-78
2021/01/22 03:34:47;;;;;;;0.88;0.88;;;6.10;99.90;;;;;;5035548;28;20263;-77
2021/01/22 03:37:12;;;;;;;0.73;0.73;;;6.40;99.90;;;;;;5035673;28;20159;-77
2021/01/22 03:39:38;;;;;;;0.57;0.57;;;6.30;99.90;;;;;;5035628;28;20172;-76
2021/01/22 03:42:04;;;;;;;0.20;0.20;;;6.30;99.90;;;;;;5017812;28;20750;-78
2021/01/22 03:44:30;;;;;;;0.10;0.10;;;6.10;99.90;;;;;;5034166;28;20290;-76
2021/01/22 03:46:56;;;;;;;0.25;0.25;;;6.30;99.90;;;;;;5035484;28;20211;-78
2021/01/22 03:49:22;;;;;;;1.50;1.40;;;6.30;99.90;;;;;;5035405;28;20207;-78
2021/01/22 03:51:47;;;;;;;0.35;0.35;;;6.40;99.90;;;;;;5035288;28;20171;-78
2021/01/22 03:54:13;;;;;;;0.43;0.43;;;6.40;99.90;;;;;;5035282;28;20156;-78
2021/01/22 03:56:38;;;;;;;0.75;0.55;;;6.50;99.90;;;;;;5035224;28;20717;-78
2021/01/22 03:59:04;;;;;;;0.20;0.20;;;6.60;99.90;;;;;;5017488;28;20175;-78
2021/01/22 04:01:31;;;;;;;0.65;0.65;;;6.50;99.90;;;;;;5017504;28;20203;-79
2021/01/22 04:03:57;;;;;;;0.95;0.95;;;6.60;99.90;;;;;;5035211;28;20148;-78
2021/01/22 04:06:22;;;;;;;0.10;0.10;;;6.50;99.90;;;;;;5035059;28;20679;-78
2021/01/22 04:08:49;;;;;;;0.30;0.30;;;6.20;99.90;;;;;;5035079;28;20250;-78
2021/01/22 04:11:15;;;;;;;0.28;0.28;;;6.00;99.90;;;;;;5035171;28;20170;-78
2021/01/22 04:13:40;;;;;;;0.20;0.20;;;5.80;99.90;;;;;;5034798;28;20190;-77
2021/01/22 04:16:06;;;;;;;0.30;0.30;;;6.00;99.90;;;;;;5034826;28;20211;-76
2021/01/22 04:18:31;;;;;;;2.50;1.13;;;6.10;99.90;;;;;;5034792;28;20252;-77
2021/01/22 04:20:57;;;;;;;0.10;0.10;;;6.30;99.90;;;;;;5034737;28;20589;-77
2021/01/22 04:23:22;;;;;;;0.10;0.10;;;6.40;99.90;;;;;;5034725;28;20171;-78
2021/01/22 04:25:48;;;;;;;0.20;0.20;;;6.40;99.90;;;;;;5034729;28;20230;-76
2021/01/22 04:28:14;;;;;;;0.10;0.10;;;6.40;99.90;;;;;;5016897;28;20168;-77
2021/01/22 04:30:40;;;;;;;0.50;0.38;;;6.50;99.90;;;;;;5016813;28;20163;-78
2021/01/22 04:33:06;;;;;;;0.20;0.20;;;6.50;99.90;;;;;;5034489;28;20638;-78
2021/01/22 04:35:32;;;;;;;0.30;0.30;;;6.70;99.90;;;;;;5016578;28;20196;-77
2021/01/22 04:37:58;;;;;;;0.20;0.20;;;6.80;99.90;;;;;;5034526;28;20172;-77
2021/01/22 04:40:25;;;;;;;0.40;0.40;;;6.70;99.90;;;;;;5034403;28;20156;-78
2021/01/22 04:42:51;;;;;;;0.40;0.40;;;6.70;99.90;;;;;;5034266;28;20282;-77
2021/01/22 04:45:16;;;;;;;1.65;1.17;;;6.70;99.90;;;;;;5034177;28;20299;-77
2021/01/22 04:47:42;;;;;;;0.45;0.45;;;6.70;99.90;;;;;;5016513;28;20649;-77
2021/01/22 04:50:13;;;;;;;0.25;0.25;;;6.90;99.90;;;;;;5034132;28;20262;-78
2021/01/22 04:52:39;;;;;;;0.30;0.30;;;6.80;99.90;;;;;;5033824;28;20258;-78
2021/01/22 04:55:11;;;;;;;0.45;0.45;;;6.90;99.90;;;;;;5033621;28;20286;-77
2021/01/22 04:57:42;;;;;;;0.30;0.30;;;7.00;99.90;;;;;;5033939;28;20166;-77
2021/01/22 05:00:09;;;;;;;0.20;0.20;;;6.80;99.90;;;;;;5034082;28;20211;-78
2021/01/22 05:02:35;;;;;;;0.20;0.20;;;6.70;99.90;;;;;;5033746;28;20199;-78
2021/01/22 05:05:01;;;;;;;3.65;0.57;;;6.70;99.90;;;;;;5033561;28;20535;-78
2021/01/22 05:07:29;;;;;;;3.63;1.50;;;6.70;99.90;;;;;;5032610;28;20172;-77
2021/01/22 05:09:55;;;;;;;0.50;0.50;;;6.70;99.90;;;;;;5033788;28;20175;-78
2021/01/22 05:12:21;;;;;;;0.13;0.13;;;6.70;99.90;;;;;;5033628;28;20167;-78
2021/01/22 05:14:47;;;;;;;0.28;0.28;;;6.70;99.90;;;;;;5033736;28;20188;-79
2021/01/22 05:17:13;;;;;;;0.28;0.28;;;6.70;99.90;;;;;;5032160;28;20258;-76
2021/01/22 05:19:43;;;;;;;0.55;0.55;;;6.90;99.90;;;;;;5033632;28;20171;-77
2021/01/22 05:22:17;;;;;;;0.77;0.77;;;6.90;99.90;;;;;;5033409;28;20214;-78
2021/01/22 05:24:43;;;;;;;0.40;0.40;;;6.90;99.90;;;;;;5033465;28;20164;-76
2021/01/22 05:27:13;;;;;;;0.55;0.55;;;6.90;99.90;;;;;;5015766;28;20263;-78
2021/01/22 05:29:41;;;;;;;0.35;0.35;;;7.10;99.90;;;;;;5015522;28;20175;-78
2021/01/22 05:32:29;;;;;;;0.43;0.43;;;6.90;99.90;;;;;;5033419;28;20164;-77
2021/01/22 05:34:56;;;;;;;1.98;0.75;;;6.80;99.90;;;;;;5015562;28;20566;-77
2021/01/22 05:37:24;;;;;;;0.65;0.65;;;6.70;99.90;;;;;;5033369;28;20164;-78
2021/01/22 05:40:09;;;;;;;0.10;0.10;;;6.80;99.90;;;;;;5033081;28;20179;-77
2021/01/22 05:42:51;;;;;;;2.80;1.40;;;7.00;99.90;;;;;;5033228;28;20211;-77
2021/01/22 05:45:27;;;;;;;0.15;0.15;;;7.10;99.90;;;;;;5032850;28;20245;-78
2021/01/22 05:47:53;;;;;;;0.20;0.20;;;7.10;99.90;;;;;;5033223;28;20175;-77
2021/01/22 05:50:18;;;;;;;0.65;0.65;;;7.00;99.90;;;;;;5033212;28;20156;-78
2021/01/22 05:52:44;;;;;;;0.20;0.20;;;6.90;99.90;;;;;;5032922;28;20167;-76
2021/01/22 05:55:21;;;;;;;0.40;0.40;;;7.00;99.90;;;;;;5032947;28;20183;-77
2021/01/22 05:57:46;;;;;;;0.43;0.43;;;7.20;99.90;;;;;;5033273;28;20168;-78
2021/01/22 06:00:14;;;;;;;0.30;0.30;;;7.30;99.90;;;;;;5031028;28;20186;-77
2021/01/22 06:02:39;;;;;;;38.38;0.90;;;7.20;99.90;;;;;;5031514;28;20203;-77
2021/01/22 06:05:13;;;;;;;0.28;0.28;;;7.10;99.90;;;;;;5032835;28;20190;-76
2021/01/22 06:07:41;;;;;;;0.40;0.40;;;7.00;99.90;;;;;;5032233;28;20160;-77
2021/01/22 06:10:22;;;;;;;0.50;0.50;;;7.00;99.90;;;;;;5032761;28;20311;-78
2021/01/22 06:12:50;;;;;;;0.25;0.25;;;6.90;99.90;;;;;;5032844;28;20163;-77
2021/01/22 06:15:18;;;;;;;0.20;0.20;;;7.00;99.90;;;;;;5032558;28;20203;-78
2021/01/22 06:17:52;;;;;;;0.20;0.20;;;7.00;99.90;;;;;;5032907;28;20156;-78
2021/01/22 06:20:24;;;;;;;0.73;0.73;;;7.20;99.90;;;;;;5032564;28;20172;-77
2021/01/22 06:23:12;;;;;;;0.43;0.43;;;7.00;99.90;;;;;;5032686;28;20211;-77
2021/01/22 06:28:19;;;;;;;0.10;0.10;;;7.10;99.90;;;;;;5049690;28;20207;-74
2021/01/22 06:30:47;;;;;;;0.80;0.80;;;6.90;99.90;;;;;;5052572;28;20159;-76
2021/01/22 06:33:14;;;;;;;0.43;0.43;;;7.00;99.90;;;;;;5052375;28;20162;-76
2021/01/22 06:35:41;;;;;;;0.30;0.30;;;7.20;99.90;;;;;;5062519;28;20194;-74
2021/01/22 06:38:07;;;;;;;0.20;0.20;;;7.10;99.90;;;;;;5072522;28;20217;-75
2021/01/22 06:40:33;;;;;;;0.40;0.40;;;7.10;99.90;;;;;;5072502;28;20179;-75
2021/01/22 06:43:00;;;;;;;0.30;0.30;;;6.90;99.90;;;;;;5072354;28;20814;-74
2021/01/22 06:45:26;;;;;;;0.40;0.40;;;6.90;99.90;;;;;;5072180;28;20174;-74
2021/01/22 06:48:01;;;;;;;0.20;0.20;;;6.80;99.90;;;;;;5072387;28;20178;-75
2021/01/22 06:50:28;;;;;;;0.50;0.50;;;7.00;99.90;;;;;;5072507;28;20162;-75
2021/01/22 06:53:15;;;;;;;1.13;1.13;;;7.00;99.90;;;;;;5072176;28;20246;-75
2021/01/22 06:55:52;;;;;;;0.20;0.20;;;6.90;99.90;;;;;;5071827;28;20236;-74
2021/01/22 06:58:26;;;;;;;0.20;0.20;;;6.70;99.90;;;;;;5054080;28;20178;-75
2021/01/22 07:01:05;;;;;;;0.68;0.68;;;6.80;99.90;;;;;;5072262;28;20170;-75
2021/01/22 07:03:36;;;;;;;0.20;0.20;;;6.80;99.90;;;;;;5072050;28;20167;-75
2021/01/22 07:06:31;;;;;;;2.45;0.85;;;6.90;99.90;;;;;;5069659;28;20191;-73
2021/01/22 07:08:58;;;;;;;0.20;0.20;;;6.80;99.90;;;;;;5046979;28;20652;-74
2021/01/22 07:11:24;;;;;;;0.32;0.32;;;6.80;99.90;;;;;;5071897;28;20190;-74
2021/01/22 07:13:53;;;;;;;0.20;0.20;;;6.80;99.90;;;;;;5072007;28;20167;-74
2021/01/22 07:16:19;;;;;;;0.10;0.10;;;6.80;99.90;;;;;;5072028;28;20187;-74
2021/01/22 07:18:50;;;;;;;0.63;0.63;;;6.90;99.90;;;;;;5073901;28;20478;-75
2021/01/22 07:21:27;;;;;;;0.60;0.60;;;6.90;99.90;;;;;;5075131;28;20194;-74
2021/01/22 07:23:59;;;;;;;0.47;0.47;;;6.80;99.90;;;;;;5075537;28;20629;-74
2021/01/22 07:26:39;;;;;;;0.25;0.25;;;6.80;99.90;;;;;;5075381;28;20210;-74
2021/01/22 07:29:19;;;;;;;0.20;0.20;;;7.00;99.90;;;;;;5057464;28;20702;-76
2021/01/22 07:31:49;;;;;;;0.65;0.65;;;6.90;99.90;;;;;;5075365;28;20244;-76
2021/01/22 07:34:43;;;;;;;0.30;0.30;;;6.90;99.90;;;;;;5074752;28;20179;-75
2021/01/22 07:37:25;;;;;;;5.18;2.47;;;6.90;99.90;;;;;;5075258;28;20237;-81
2021/01/22 07:39:55;;;;;;;0.20;0.20;;;6.80;99.90;;;;;;5075183;28;20163;-76
2021/01/22 07:42:26;;;;;;;19.38;1.00;;;6.80;99.90;;;;;;5074651;28;20210;-76
2021/01/22 07:44:53;;;;;;;0.57;0.57;;;6.70;99.90;;;;;;5075031;28;20213;-76
2021/01/22 07:47:30;;;;;;;0.20;0.20;;;6.60;99.90;;;;;;5075210;28;20269;-76
2021/01/22 07:49:58;;;;;;;0.17;0.17;;;6.70;99.90;;;;;;5058465;28;20200;-76
2021/01/22 07:52:25;;;;;;;0.40;0.40;;;6.70;99.90;;;;;;5073153;28;20628;-74
2021/01/22 07:54:51;;;;;;;0.20;0.20;;;6.70;99.90;;;;;;5073951;28;20194;-75
2021/01/22 07:57:20;;;;;;;0.20;0.20;;;6.50;99.90;;;;;;5074278;28;20850;-76
2021/01/22 07:59:47;;;;;;;0.20;0.20;;;6.40;99.90;;;;;;5073307;28;20276;-75
2021/01/22 08:02:21;;;;;;;6.03;1.25;;;6.60;99.90;;;;;;5056149;28;20288;-75
2021/01/22 08:04:55;;;;;;;1.60;1.50;;;6.40;99.90;;;;;;5074116;28;20224;-75
2021/01/22 08:07:45;;;;;;;0.25;0.25;;;6.40;99.90;;;;;;5070312;28;20644;-74
2021/01/22 08:10:12;;;;;;;0.25;0.25;;;6.50;99.90;;;;;;5053868;28;20163;-74
2021/01/22 08:12:53;;;;;;;0.52;0.52;;;6.60;99.90;;;;;;5053411;28;20199;-75
2021/01/22 08:15:20;;;;;;;0.20;0.20;;;6.80;99.90;;;;;;5052654;28;20217;-76
2021/01/22 08:17:47;;;;;;;0.20;0.20;;;6.80;99.90;;;;;;5034729;28;20225;-76
2021/01/22 08:20:14;;;;;;;0.20;0.20;;;6.80;99.90;;;;;;5053670;28;20155;-76
2021/01/22 08:22:40;;;;;;;0.20;0.20;;;6.90;99.90;;;;;;5053611;28;20202;-75
2021/01/22 08:25:15;;;;;;;0.15;0.15;;;7.00;99.90;;;;;;5067940;28;20186;-76
2021/01/22 08:27:53;;;;;;;0.20;0.20;;;7.00;99.90;;;;;;5054433;28;20221;-75
2021/01/22 08:30:23;;;;;;;0.40;0.40;;;7.00;99.90;;;;;;5054765;28;20170;-74
2021/01/22 08:32:56;;;;;;;4.15;0.40;;;6.90;99.90;;;;;;5077002;28;20225;-78
2021/01/22 08:35:26;;;;;;;0.30;0.30;;;6.90;99.90;;;;;;5092419;28;20181;-78
2021/01/22 08:37:53;;;;;;;0.68;0.68;;;6.90;99.90;;;;;;5062149;28;20171;-78
2021/01/22 08:40:19;;;;;;;0.30;0.30;;;7.00;99.90;;;;;;5054718;28;20163;-80
2021/01/22 08:43:07;;;;;;;0.45;0.45;;;7.00;99.90;;;;;;5055749;28;20214;-75
2021/01/22 08:45:33;;;;;;;0.20;0.20;;;7.00;99.90;;;;;;5073044;28;20533;-76
2021/01/22 08:48:01;;;;;;;0.20;0.20;;;7.00;99.90;;;;;;5056622;28;20195;-76
2021/01/22 08:50:26;;;;;;;0.50;0.50;;;7.00;99.90;;;;;;5073848;28;20522;-76
2021/01/22 08:53:14;;;;;;;0.85;0.60;;;6.90;99.90;;;;;;5073979;28;20162;-76
2021/01/22 08:55:41;;;;;;;2.10;0.40;;;6.90;99.90;;;;;;5073508;28;20748;-74
2021/01/22 08:58:11;;;;;;;0.55;0.55;;;6.90;99.90;;;;;;5074132;28;20261;-75
2021/01/22 09:00:38;;;;;;;0.28;0.28;;;6.80;99.90;;;;;;5073917;28;20162;-75
2021/01/22 09:03:24;;;;;;;0.15;0.15;;;6.60;99.90;;;;;;5073607;28;20209;-77
2021/01/22 09:05:54;;;;;;;4.57;1.58;;;6.70;99.90;;;;;;5072169;28;20236;-75
2021/01/22 09:08:21;;;;;;;0.30;0.30;;;6.90;99.90;;;;;;5073658;28;20177;-75
2021/01/22 09:10:47;;;;;;;0.13;0.13;;;6.90;99.90;;;;;;5073434;28;20154;-78
2021/01/22 09:13:15;;;;;;;0.10;0.10;;;6.80;99.90;;;;;;5073589;28;20169;-75
2021/01/22 09:15:42;;;;;;;0.20;0.20;;;6.80;99.90;;;;;;5073118;28;20190;-77
2021/01/22 09:18:19;;;;;;;0.20;0.20;;;6.70;99.90;;;;;;5073637;28;20194;-76
2021/01/22 09:20:55;;;;;;;0.20;0.20;;;6.80;99.90;;;;;;5073625;28;20204;-76
2021/01/22 09:23:21;;;;;;;0.20;0.20;;;6.90;99.90;;;;;;5073530;28;20197;-74
2021/01/22 09:25:46;;;;;;;0.55;0.47;;;6.90;99.90;;;;;;5072959;28;20186;-75
2021/01/22 09:28:12;;;;;;;0.30;0.30;;;6.80;99.90;;;;;;5073107;28;20215;-75
2021/01/22 09:30:38;;;;;;;0.40;0.40;;;6.80;99.90;;;;;;5072946;28;20241;-75
2021/01/22 09:33:03;;;;;;;0.95;0.75;;;6.70;99.90;;;;;;5073318;28;20642;-75
2021/01/22 09:35:30;;;;;;;0.20;0.20;;;6.70;99.90;;;;;;5073191;28;20182;-76
2021/01/22 09:37:56;;;;;;;0.50;0.50;;;6.70;99.90;;;;;;5073547;28;20171;-76
2021/01/22 09:40:23;;;;;;;0.10;0.10;;;6.80;99.90;;;;;;5072876;28;20208;-77
2021/01/22 09:42:49;;;;;;;0.20;0.20;;;6.90;99.90;;;;;;5072041;28;20199;-76
2021/01/22 09:45:15;;;;;;;0.40;0.40;;;7.10;99.90;;;;;;5072623;28;20193;-75
2021/01/22 09:47:41;;;;;;;0.28;0.28;;;7.30;99.90;;;;;;5072780;28;20181;-81
2021/01/22 09:50:11;;;;;;;0.35;0.35;;;7.20;99.90;;;;;;5054859;28;20163;-79
2021/01/22 09:52:38;;;;;;;1.27;0.85;;;7.10;99.90;;;;;;5072984;28;20166;-77
2021/01/22 09:55:07;;;;;;;0.20;0.20;;;7.20;99.90;;;;;;5072839;28;20217;-78
2021/01/22 09:57:33;;;;;;;1.35;1.33;;;7.30;99.90;;;;;;5072574;28;20574;-77
2021/01/22 09:59:59;;;;;;;0.88;0.88;;;7.10;99.90;;;;;;5064693;28;20183;-77
2021/01/22 10:02:24;;;;;;;1.65;0.52;;;7.00;99.90;;;;;;5052878;28;20657;-77
2021/01/22 10:04:50;;;;;;;1.33;1.23;;;7.00;99.90;;;;;;5066937;28;20618;-78
2021/01/22 10:07:15;;;;;;;0.20;0.20;;;7.10;99.90;;;;;;5072512;28;20158;-77
2021/01/22 10:09:41;;;;;;;1.20;1.20;;;7.20;99.90;;;;;;5072604;28;20159;-78
2021/01/22 10:12:08;;;;;;;2.67;1.17;;;7.40;99.90;;;;;;5072709;28;20166;-77
2021/01/22 10:14:34;;;;;;;0.10;0.10;;;7.30;99.90;;;;;;5053954;28;20170;-77
2021/01/22 10:17:00;;;;;;;0.30;0.30;;;7.40;99.90;;;;;;5072548;28;20162;-78
2021/01/22 10:19:25;;;;;;;10.60;1.13;;;7.60;99.90;;;;;;5054593;28;20158;-78
2021/01/22 10:21:51;;;;;;;0.20;0.20;;;7.60;99.90;;;;;;5072444;28;20669;-78
2021/01/22 10:24:16;;;;;;;0.22;0.22;;;7.70;99.90;;;;;;5072126;28;20205;-77
2021/01/22 10:26:45;;;;;;;0.50;0.50;;;7.80;99.90;;;;;;5072299;28;20568;-78
2021/01/22 10:29:11;;;;;;;0.90;0.90;;;7.80;99.90;;;;;;5071779;28;20178;-77
2021/01/22 10:31:36;;;;;;;1.00;0.43;;;7.80;99.90;;;;;;5072476;28;20181;-77
2021/01/22 10:34:02;;;;;;;0.20;0.20;;;7.80;99.90;;;;;;5072065;28;20155;-78
2021/01/22 10:36:28;;;;;;;1.27;0.60;;;7.90;99.90;;;;;;5072021;28;20190;-77
2021/01/22 10:38:54;;;;;;;0.50;0.50;;;7.80;99.90;;;;;;5072147;28;20626;-77
2021/01/22 10:41:20;;;;;;;1.52;1.20;;;7.70;99.90;;;;;;5071841;28;20163;-77
2021/01/22 10:43:45;;;;;;;34.63;4.03;;;7.90;99.90;;;;;;5071976;28;20220;-77
2021/01/22 10:46:11;;;;;;;0.50;0.50;;;8.10;99.90;;;;;;5072046;28;20197;-77
2021/01/22 10:48:37;;;;;;;4.03;0.50;;;8.10;99.90;;;;;;5072257;28;20587;-77
2021/01/22 10:51:02;;;;;;;1.65;1.45;;;8.00;99.90;;;;;;5070725;28;20170;-77
2021/01/22 10:53:28;;;;;;;0.47;0.47;;;8.00;99.90;;;;;;5073666;28;20166;-78
2021/01/22 10:55:54;;;;;;;0.20;0.20;;;7.90;99.90;;;;;;5074611;28;20531;-78
2021/01/22 10:58:20;;;;;;;0.25;0.25;;;7.90;99.90;;;;;;5075879;28;20178;-78
2021/01/22 11:00:47;;;;;;;3.25;1.27;;;7.90;99.90;;;;;;5069014;28;20174;-77
2021/01/22 11:03:12;;;;;;;0.17;0.17;;;7.90;99.90;;;;;;5075534;28;20196;-78
2021/01/22 11:05:38;;;;;;;0.60;0.60;;;8.00;99.90;;;;;;5075860;28;20235;-78
2021/01/22 11:08:04;;;;;;;6.55;1.75;;;8.20;99.90;;;;;;5075916;28;20669;-78
2021/01/22 11:10:30;;;;;;;10.93;1.55;;;8.20;99.90;;;;;;5075713;28;20181;-78
2021/01/22 11:12:56;;;;;;;0.35;0.35;;;8.40;99.90;;;;;;5075007;28;20273;-78
2021/01/22 11:15:21;;;;;;;0.20;0.20;;;8.10;99.90;;;;;;5075783;28;20194;-77
2021/01/22 11:17:47;;;;;;;1.48;1.08;;;7.90;99.90;;;;;;5075704;28;20159;-77
2021/01/22 11:20:13;;;;;;;0.30;0.30;;;8.00;99.90;;;;;;5074443;28;20220;-77
2021/01/22 11:22:39;;;;;;;0.68;0.68;;;8.30;99.90;;;;;;5075198;28;20320;-76
2021/01/22 11:25:05;;;;;;;0.68;0.68;;;8.50;99.90;;;;;;5075556;28;20186;-77
2021/01/22 11:27:30;;;;;;;1.20;0.57;;;8.70;99.90;;;;;;5075235;28;20693;-77
2021/01/22 11:29:56;;;;;;;2.83;1.55;;;8.80;99.90;;;;;;5075156;28;20189;-77
2021/01/22 11:32:22;;;;;;;0.20;0.20;;;9.00;99.90;;;;;;5075346;28;20266;-77
2021/01/22 11:34:48;;;;;;;0.30;0.30;;;8.90;99.90;;;;;;5074323;28;20669;-76
2021/01/22 11:37:13;;;;;;;0.40;0.40;;;8.90;99.90;;;;;;5074863;28;20533;-78
2021/01/22 11:39:39;;;;;;;0.63;0.35;;;8.90;99.90;;;;;;5075458;28;20170;-76
2021/01/22 11:42:09;;;;;;;0.10;0.10;;;9.00;99.90;;;;;;5075731;28;20198;-76
2021/01/22 11:44:35;;;;;;;0.30;0.30;;;9.20;99.90;;;;;;5075232;28;20507;-76
2021/01/22 11:47:01;;;;;;;0.40;0.40;;;9.10;99.90;;;;;;5075017;28;20177;-77
2021/01/22 11:49:27;;;;;;;6.70;1.75;;;9.10;99.90;;;;;;5074741;28;20166;-78
2021/01/22 11:51:53;;;;;;;3.65;0.55;;;8.90;99.90;;;;;;5075001;28;20654;-76
2021/01/22 11:54:19;;;;;;;1.48;0.85;;;8.70;99.90;;;;;;5074842;28;20614;-77
2021/01/22 11:56:50;;;;;;;2.90;2.08;;;8.70;99.90;;;;;;5073609;28;20328;-77
2021/01/22 11:59:19;;;;;;;0.35;0.35;;;8.60;99.90;;;;;;5056880;28;20198;-77
2021/01/22 12:01:45;;;;;;;0.20;0.20;;;8.70;99.90;;;;;;5075024;28;20316;-76
2021/01/22 12:04:11;;;;;;;0.50;0.50;;;8.80;99.90;;;;;;5074270;28;20175;-76
2021/01/22 12:06:36;;;;;;;0.55;0.55;;;8.90;99.90;;;;;;5074334;28;20744;-76
2021/01/22 12:09:07;;;;;;;0.35;0.35;;;8.90;99.90;;;;;;5074706;28;20514;-80
2021/01/22 12:11:33;;;;;;;0.35;0.35;;;9.00;99.90;;;;;;5074997;28;20159;-76
2021/01/22 12:13:59;;;;;;;1.05;0.50;;;9.00;99.90;;;;;;5074778;28;20159;-75
2021/01/22 12:16:25;;;;;;;0.55;0.50;;;9.10;99.90;;;;;;5074755;28;20178;-76
2021/01/22 12:18:52;;;;;;;0.60;0.60;;;9.00;99.90;;;;;;5074625;28;20186;-76
2021/01/22 12:21:18;;;;;;;0.55;0.55;;;9.00;99.90;;;;;;5074493;28;20162;-77
2021/01/22 12:26:12;;;;;;;0.20;0.20;;;8.90;99.90;;;;;;5074138;28;20201;-77
2021/01/22 12:31:18;;;;;;;0.20;0.20;;;9.00;99.90;;;;;;4987942;28;20239;-79
2021/01/22 12:33:44;;;;;;;1.15;1.08;;;9.10;99.90;;;;;;4994661;28;20173;-78
2021/01/22 12:36:10;;;;;;;0.20;0.20;;;9.10;99.90;;;;;;5008433;28;20200;-77
2021/01/22 12:38:35;;;;;;;1.02;0.95;;;9.10;99.90;;;;;;4996664;28;20655;-78
2021/01/22 12:41:03;;;;;;;0.52;0.50;;;9.10;99.90;;;;;;5014128;28;20161;-78
2021/01/22 12:43:29;;;;;;;2.33;1.38;;;9.10;99.90;;;;;;5014238;28;20283;-77
2021/01/22 12:45:55;;;;;;;1.45;0.55;;;9.00;99.90;;;;;;5014148;28;20223;-77
2021/01/22 12:48:20;;;;;;;0.60;0.60;;;8.90;99.90;;;;;;5009837;28;20208;-84
2021/01/22 12:50:46;;;;;;;0.20;0.20;;;9.00;99.90;;;;;;5013162;28;20153;-77
2021/01/22 12:53:11;;;;;;;0.52;0.52;;;8.90;99.90;;;;;;5013972;28;20296;-76
2021/01/22 12:55:37;;;;;;;17.98;0.80;;;8.90;99.90;;;;;;5013784;28;20266;-76
2021/01/22 12:58:03;;;;;;;0.40;0.40;;;9.00;99.90;;;;;;5019273;28;20533;-78
2021/01/22 13:00:29;;;;;;;2.08;1.35;;;9.00;99.90;;;;;;5001942;28;20216;-75
2021/01/22 13:02:55;;;;;;;0.20;0.20;;;9.00;99.90;;;;;;4999043;28;20229;-77
2021/01/22 13:05:21;;;;;;;0.15;0.15;;;9.10;99.90;;;;;;5006635;28;20196;-80
2021/01/22 13:07:47;;;;;;;1.20;0.90;;;8.90;99.90;;;;;;5010578;28;20157;-77
2021/01/22 13:10:14;;;;;;;0.55;0.55;;;8.80;99.90;;;;;;5007787;28;20227;-77